createdAt,value
2022-10-05T00:02:32.183Z,10.23
2022-10-05T00:07:33.563Z,10.35
2022-10-05T00:12:34.963Z,10.07
2022-10-05T00:17:36.294Z,12.68
2022-10-05T00:22:37.608Z,15.00
2022-10-05T00:27:39.103Z,12.25
2022-10-05T00:32:40.467Z,12.55
2022-10-05T00:37:42.206Z,10.65
2022-10-05T00:43:09.880Z,12.02
2022-10-05T00:48:36.923Z,13.07
2022-10-05T00:53:47.448Z,12.15
2022-10-05T00:59:17.794Z,11.57
2022-10-05T01:04:26.653Z,13.57
2022-10-05T01:09:39.749Z,11.93
2022-10-05T01:15:01.259Z,13.30
2022-10-05T01:20:09.742Z,13.32
2022-10-05T01:25:34.843Z,11.98
2022-10-05T01:31:05.756Z,11.45
2022-10-05T01:36:22.547Z,12.27
2022-10-05T01:41:56.114Z,9.38
2022-10-05T01:47:07.606Z,11.95
2022-10-05T01:52:27.678Z,11.70
2022-10-05T01:58:07.689Z,12.00
2022-10-05T02:08:34.871Z,13.52
2022-10-05T02:13:47.357Z,13.38
2022-10-05T02:19:08.086Z,10.27
2022-10-05T02:24:17.140Z,11.85
2022-10-05T02:29:22.516Z,10.90
2022-10-05T02:34:30.005Z,11.52
2022-10-05T02:39:59.229Z,10.52
2022-10-05T02:45:18.586Z,12.30
2022-10-05T02:50:32.232Z,14.57
2022-10-05T02:55:42.771Z,18.48
2022-10-05T03:01:02.080Z,12.32
2022-10-05T03:06:10.686Z,16.70
2022-10-05T03:11:27.000Z,12.43
2022-10-05T03:16:47.326Z,14.55
2022-10-05T03:22:04.162Z,10.90
2022-10-05T03:27:15.484Z,13.02
2022-10-05T03:32:41.163Z,11.32
2022-10-05T03:38:07.948Z,11.90
2022-10-05T03:43:30.708Z,12.32
2022-10-05T03:49:14.151Z,12.85
2022-10-05T03:54:20.655Z,12.52
2022-10-05T03:59:37.852Z,14.43
2022-10-05T04:05:02.599Z,12.13
2022-10-05T04:10:13.687Z,13.05
2022-10-05T04:15:19.349Z,11.65
2022-10-05T04:20:27.263Z,11.75
2022-10-05T04:25:47.669Z,15.93
2022-10-05T04:30:52.060Z,13.63
2022-10-05T04:35:59.340Z,18.20
2022-10-05T04:41:25.510Z,12.48
2022-10-05T04:46:33.436Z,13.15
2022-10-05T04:51:52.046Z,11.32
2022-10-05T04:56:59.246Z,11.85
2022-10-05T05:02:05.147Z,11.25
2022-10-05T05:07:40.555Z,12.70
2022-10-05T05:12:59.280Z,12.07
2022-10-05T05:18:09.779Z,15.63
2022-10-05T05:23:40.927Z,13.75
2022-10-05T05:29:21.869Z,11.43
2022-10-05T05:34:29.180Z,12.07
2022-10-05T05:39:49.344Z,12.00
2022-10-05T05:44:53.820Z,12.60
2022-10-05T05:50:23.074Z,15.75
2022-10-05T05:55:35.149Z,14.35
2022-10-05T06:00:57.352Z,12.80
2022-10-05T06:06:02.362Z,14.88
2022-10-05T06:17:12.015Z,12.23
2022-10-05T06:22:17.318Z,13.55
2022-10-05T06:27:36.815Z,9.98
2022-10-05T06:32:44.313Z,13.17
2022-10-05T06:38:10.910Z,10.98
2022-10-05T06:43:18.361Z,11.20
2022-10-05T06:48:45.649Z,12.23
2022-10-05T06:54:05.357Z,11.57
2022-10-05T06:59:14.797Z,12.52
2022-10-05T07:04:16.189Z,12.33
2022-10-05T07:09:38.726Z,12.13
2022-10-05T07:15:04.250Z,10.82
2022-10-05T07:20:21.121Z,12.45
2022-10-05T07:26:03.443Z,11.73
2022-10-05T07:31:25.055Z,11.52
2022-10-05T07:36:44.779Z,9.60
2022-10-05T07:42:42.448Z,12.25
2022-10-05T07:47:58.614Z,11.90
2022-10-05T07:53:14.249Z,12.10
2022-10-05T07:58:23.319Z,11.60
2022-10-05T08:03:38.321Z,11.30
2022-10-05T08:08:52.757Z,10.52
2022-10-05T08:14:19.020Z,12.00
2022-10-05T08:19:29.381Z,11.30
2022-10-05T08:24:44.001Z,14.38
2022-10-05T08:30:00.729Z,10.90
2022-10-05T08:35:08.089Z,12.40
2022-10-05T08:40:18.639Z,11.13
2022-10-05T08:45:46.473Z,12.23
2022-10-05T08:51:12.316Z,11.07
2022-10-05T08:56:17.623Z,12.10
2022-10-05T09:01:49.531Z,13.45
2022-10-05T09:07:04.071Z,11.10
2022-10-05T09:12:27.311Z,17.85
2022-10-05T09:17:39.539Z,10.27
2022-10-05T09:23:02.406Z,12.45
2022-10-05T09:28:21.245Z,13.90
2022-10-05T09:33:53.600Z,11.90
2022-10-05T09:39:13.924Z,10.80
2022-10-05T09:44:46.267Z,8.95
2022-10-05T09:50:38.810Z,10.95
2022-10-05T09:56:11.434Z,8.30
2022-10-05T10:01:41.265Z,9.70
2022-10-05T10:06:54.903Z,7.75
2022-10-05T10:12:37.589Z,8.65
2022-10-05T10:18:24.041Z,7.20
2022-10-05T10:23:47.101Z,7.82
2022-10-05T10:29:07.125Z,9.82
2022-10-05T10:34:31.529Z,9.82
2022-10-05T10:39:49.327Z,6.90
2022-10-05T10:45:05.207Z,6.72
2022-10-05T10:57:20.438Z,7.78
2022-10-05T11:02:44.677Z,5.80
2022-10-05T11:08:06.751Z,8.05
2022-10-05T11:13:20.314Z,8.63
2022-10-05T11:18:49.808Z,6.50
2022-10-05T11:29:36.078Z,6.63
2022-10-05T11:35:08.360Z,7.32
2022-10-05T11:40:32.826Z,5.53
2022-10-05T11:45:58.238Z,6.85
2022-10-05T11:51:32.601Z,4.70
2022-10-05T11:57:04.825Z,6.43
2022-10-05T12:02:44.864Z,4.38
2022-10-05T12:07:59.648Z,4.75
2022-10-05T12:13:04.335Z,4.15
2022-10-05T12:18:13.944Z,6.05
2022-10-05T12:23:24.459Z,4.57
2022-10-05T12:28:58.133Z,3.90
2022-10-05T12:34:13.792Z,5.10
2022-10-05T12:39:23.993Z,6.65
2022-10-05T12:44:34.613Z,4.47
2022-10-05T12:49:40.346Z,4.38
2022-10-05T12:55:00.747Z,5.28
2022-10-05T13:00:11.196Z,5.43
2022-10-05T13:05:27.944Z,4.38
2022-10-05T13:10:44.476Z,4.00
2022-10-05T13:16:15.683Z,4.78
2022-10-05T13:21:27.013Z,3.85
2022-10-05T13:26:39.371Z,5.88
2022-10-05T13:31:50.990Z,3.30
2022-10-05T13:37:20.356Z,5.07
2022-10-05T13:42:28.013Z,4.00
2022-10-05T13:47:47.671Z,6.45
2022-10-05T13:53:29.135Z,4.70
2022-10-05T13:58:48.718Z,7.60
2022-10-05T14:04:05.784Z,4.50
2022-10-05T14:09:33.555Z,3.33
2022-10-05T14:15:06.143Z,3.53
2022-10-05T14:20:21.647Z,5.95
2022-10-05T14:25:54.187Z,4.45
2022-10-05T14:31:02.558Z,5.47
2022-10-05T14:36:12.544Z,5.72
2022-10-05T14:41:22.025Z,5.28
2022-10-05T14:51:33.463Z,4.82
2022-10-05T14:57:00.498Z,4.07
2022-10-05T15:02:26.411Z,5.97
2022-10-05T15:07:39.654Z,9.05
2022-10-05T15:12:44.624Z,6.32
2022-10-05T15:18:00.793Z,5.25
2022-10-05T15:23:19.637Z,4.38
2022-10-05T15:28:46.462Z,4.47
2022-10-05T15:33:58.559Z,6.20
2022-10-05T15:39:47.493Z,6.38
2022-10-05T15:45:26.933Z,5.35
2022-10-05T15:55:36.312Z,7.82
2022-10-05T16:00:56.311Z,4.63
2022-10-05T16:06:08.761Z,7.07
2022-10-05T16:11:21.478Z,7.05
2022-10-05T16:16:51.645Z,6.88
2022-10-05T16:22:25.455Z,7.22
2022-10-05T16:27:40.289Z,5.70
2022-10-05T16:33:12.587Z,5.82
2022-10-05T16:39:14.741Z,6.93
2022-10-05T16:44:41.778Z,8.10
2022-10-05T16:56:05.136Z,7.57
2022-10-05T17:01:28.556Z,6.13
2022-10-05T17:06:59.280Z,7.28
2022-10-05T17:12:23.137Z,6.55
2022-10-05T17:18:01.936Z,9.77
2022-10-05T17:23:25.068Z,3.43
2022-10-05T17:28:41.171Z,8.35
2022-10-05T17:34:25.178Z,6.63
2022-10-05T17:45:36.258Z,6.95
2022-10-05T17:50:52.116Z,6.25
2022-10-05T17:56:04.494Z,9.27
2022-10-05T18:01:30.415Z,8.27
2022-10-05T18:06:39.371Z,5.57
2022-10-05T18:12:28.430Z,7.93
2022-10-05T18:17:46.208Z,6.80
2022-10-05T18:22:51.960Z,6.93
2022-10-05T18:28:23.660Z,8.55
2022-10-05T18:39:42.108Z,5.70
2022-10-05T18:45:03.714Z,6.10
2022-10-05T18:50:27.481Z,5.72
2022-10-05T19:51:59.150Z,7.47
2022-10-05T20:02:32.524Z,5.75
2022-10-05T20:07:40.026Z,7.47
2022-10-05T20:13:00.094Z,6.32
2022-10-05T20:18:44.556Z,5.40
2022-10-05T20:23:53.838Z,5.95
2022-10-05T20:28:58.417Z,5.68
2022-10-05T20:34:15.551Z,5.75
2022-10-05T20:39:27.111Z,6.50
2022-10-05T20:44:28.976Z,4.97
2022-10-05T20:49:32.058Z,5.22
2022-10-05T20:54:33.471Z,5.25
2022-10-05T20:59:36.007Z,6.18
2022-10-05T21:04:41.434Z,5.03
2022-10-05T21:09:43.619Z,5.22
2022-10-05T21:14:44.986Z,5.05
2022-10-05T21:19:46.860Z,7.00
2022-10-05T21:24:48.575Z,5.90
2022-10-05T21:29:49.922Z,5.07
2022-10-05T21:34:51.307Z,6.88
2022-10-05T21:39:52.653Z,5.60
2022-10-05T21:44:54.031Z,5.80
2022-10-05T21:49:55.438Z,5.75
2022-10-05T21:54:56.784Z,7.32
2022-10-05T21:59:58.147Z,5.13
2022-10-05T22:04:59.505Z,5.13
2022-10-05T22:10:00.987Z,7.97
2022-10-05T22:15:02.353Z,7.13
2022-10-05T22:20:03.965Z,6.30
2022-10-05T22:25:06.078Z,4.32
2022-10-05T22:30:08.022Z,3.83
2022-10-05T22:35:11.672Z,3.17
2022-10-05T22:40:13.292Z,4.93
2022-10-05T22:45:14.699Z,2.15
2022-10-05T22:50:16.170Z,4.43
2022-10-05T22:55:17.619Z,4.47
2022-10-05T23:00:19.398Z,4.35
2022-10-05T23:05:21.951Z,5.05
2022-10-05T23:10:23.459Z,4.80
2022-10-05T23:15:25.564Z,4.53
2022-10-05T23:20:26.975Z,6.10
2022-10-05T23:25:28.327Z,5.63
2022-10-05T23:30:29.849Z,5.70
2022-10-05T23:35:31.452Z,6.07
2022-10-05T23:40:33.101Z,4.25
2022-10-05T23:45:34.491Z,5.90
2022-10-05T23:50:35.948Z,4.28
2022-10-05T23:55:37.636Z,3.70
